Time;durP1;ratioP1;P1;durP2;ratioP2;P2;SDS_P1;SDS_P2;PMS_P1;PMS_P2;Temp;Humidity;BMP_temperature;BMP_pressure;BME280_temperature;BME280_humidity;BME280_pressure;Samples;Min_cycle;Max_cycle;Signal;HPM_P1;HPM_P2
2023/05/10 00:00:40;;;;;;;1.17;0.90;;;14.40;99.90;;;;;;4897606;29;20247;-61
2023/05/10 00:03:07;;;;;;;0.97;0.83;;;14.40;99.90;;;;;;4891099;29;20286;-61
2023/05/10 00:05:37;;;;;;;0.67;0.67;;;14.30;99.90;;;;;;4890763;29;20702;-62
2023/05/10 00:08:04;;;;;;;1.50;0.60;;;14.40;99.90;;;;;;4896536;29;20211;-61
2023/05/10 00:10:31;;;;;;;0.70;0.70;;;14.40;99.90;;;;;;4890332;29;20226;-62
2023/05/10 00:12:58;;;;;;;0.53;0.53;;;14.40;99.90;;;;;;4892591;29;20681;-62
2023/05/10 00:15:25;;;;;;;0.50;0.50;;;14.30;99.90;;;;;;4896092;29;20745;-61
2023/05/10 00:17:52;;;;;;;0.40;0.40;;;14.30;99.90;;;;;;4925348;23;20661;-56
2023/05/10 00:20:19;;;;;;;1.70;0.33;;;14.30;99.90;;;;;;4916748;29;20202;-56
2023/05/10 00:22:47;;;;;;;0.30;0.30;;;14.30;99.90;;;;;;4915099;29;20214;-57
2023/05/10 00:25:14;;;;;;;2.20;0.70;;;14.30;99.90;;;;;;4916794;29;20267;-57
2023/05/10 00:27:41;;;;;;;0.83;0.40;;;14.30;99.90;;;;;;4909772;29;20307;-57
2023/05/10 00:30:09;;;;;;;1.20;0.60;;;14.30;99.90;;;;;;4912318;29;20254;-57
2023/05/10 00:56:58;;;;;;;0.00;0.00;;;14.00;99.90;;;;;;4911836;29;20209;-56
2023/05/10 00:59:27;;;;;;;1.40;0.10;;;13.80;99.90;;;;;;4916323;29;20633;-57
2023/05/10 01:01:54;;;;;;;0.00;0.00;;;13.80;99.90;;;;;;4913611;29;20206;-56
2023/05/10 01:04:25;;;;;;;0.10;0.10;;;13.70;99.90;;;;;;4911563;29;20256;-57
2023/05/10 01:06:52;;;;;;;0.67;0.07;;;13.70;99.90;;;;;;4911189;29;20206;-56
2023/05/10 01:09:20;;;;;;;0.00;0.00;;;13.60;99.90;;;;;;4916463;29;20207;-57
2023/05/10 01:11:48;;;;;;;1.20;0.00;;;13.50;99.90;;;;;;4916108;29;20300;-58
2023/05/10 01:14:18;;;;;;;0.00;0.00;;;13.50;99.90;;;;;;4910146;29;20283;-57
2023/05/10 01:16:49;;;;;;;0.13;0.00;;;13.50;99.90;;;;;;4914217;29;20264;-57
2023/05/10 01:19:21;;;;;;;0.00;0.00;;;13.50;99.90;;;;;;4915640;29;20211;-56
2023/05/10 01:21:56;;;;;;;0.10;0.10;;;13.50;99.90;;;;;;4915437;29;20202;-56
2023/05/10 01:25:06;;;;;;;0.10;0.00;;;13.60;99.90;;;;;;4909299;29;20266;-57
2023/05/10 01:28:08;;;;;;;0.10;0.00;;;13.50;99.90;;;;;;4915395;29;20250;-57
2023/05/10 01:31:19;;;;;;;0.00;0.00;;;13.50;99.90;;;;;;4897043;29;20289;-58
2023/05/10 01:33:53;;;;;;;0.00;0.00;;;13.50;99.90;;;;;;4877461;29;20216;-57
2023/05/10 01:36:25;;;;;;;0.00;0.00;;;13.50;99.90;;;;;;4894357;29;20274;-57
2023/05/10 01:38:58;;;;;;;0.00;0.00;;;13.40;99.90;;;;;;4905683;29;20696;-57
2023/05/10 01:41:32;;;;;;;0.00;0.00;;;13.40;99.90;;;;;;4915673;29;20258;-57
2023/05/10 01:44:06;;;;;;;0.00;0.00;;;13.40;99.90;;;;;;4910202;29;20207;-57
2023/05/10 01:46:36;;;;;;;0.07;0.07;;;13.30;99.90;;;;;;4915476;29;20206;-57
2023/05/10 01:49:09;;;;;;;0.13;0.00;;;13.30;99.90;;;;;;4915731;29;20583;-57
2023/05/10 01:51:42;;;;;;;0.10;0.10;;;13.30;99.90;;;;;;4914584;29;20273;-57
2023/05/10 01:54:13;;;;;;;0.10;0.10;;;13.30;99.90;;;;;;4910823;29;20278;-57
2023/05/10 01:56:41;;;;;;;1.40;0.10;;;13.30;99.90;;;;;;4909084;29;20202;-57
2023/05/10 01:59:14;;;;;;;0.30;0.00;;;13.30;99.90;;;;;;4915334;29;20313;-57
2023/05/10 02:01:42;;;;;;;0.10;0.10;;;13.30;99.90;;;;;;4915799;29;20289;-57
2023/05/10 02:04:12;;;;;;;0.00;0.00;;;13.30;99.90;;;;;;4905693;29;20275;-56
2023/05/10 02:06:40;;;;;;;0.10;0.10;;;13.30;99.90;;;;;;4915316;29;20336;-56
2023/05/10 02:09:08;;;;;;;0.70;0.00;;;13.30;99.90;;;;;;4915518;29;20257;-56
2023/05/10 02:11:37;;;;;;;1.03;0.00;;;13.40;99.90;;;;;;4915201;29;20321;-56
2023/05/10 02:14:06;;;;;;;0.10;0.10;;;13.30;99.90;;;;;;4909101;29;20211;-57
2023/05/10 02:16:34;;;;;;;0.20;0.20;;;13.30;99.90;;;;;;4910929;29;20677;-58
2023/05/10 02:19:03;;;;;;;0.00;0.00;;;13.30;99.90;;;;;;4910434;29;20284;-57
2023/05/10 02:21:34;;;;;;;0.83;0.10;;;13.20;99.90;;;;;;4915270;29;20580;-57
2023/05/10 02:24:04;;;;;;;0.10;0.10;;;13.20;99.90;;;;;;4909840;29;20555;-57
2023/05/10 02:26:32;;;;;;;0.10;0.10;;;13.30;99.90;;;;;;4906590;29;20211;-57
2023/05/10 02:28:59;;;;;;;0.20;0.10;;;13.40;99.90;;;;;;4915387;29;20226;-57
2023/05/10 02:31:27;;;;;;;0.00;0.00;;;13.40;99.90;;;;;;4914550;29;20657;-58
2023/05/10 02:33:55;;;;;;;0.10;0.10;;;13.40;99.90;;;;;;4908771;29;20203;-56
2023/05/10 02:36:23;;;;;;;0.10;0.10;;;13.50;99.90;;;;;;4908845;29;20210;-57
2023/05/10 02:38:53;;;;;;;0.63;0.10;;;13.50;99.90;;;;;;4917660;29;20238;-57
2023/05/10 02:41:23;;;;;;;0.00;0.00;;;13.50;99.90;;;;;;4918588;29;20295;-57
2023/05/10 02:43:52;;;;;;;0.47;0.10;;;13.50;99.90;;;;;;4915207;29;20290;-57
2023/05/10 02:46:19;;;;;;;0.10;0.10;;;13.50;99.90;;;;;;4917059;29;20620;-57
2023/05/10 02:48:46;;;;;;;0.10;0.07;;;13.40;99.90;;;;;;4918755;29;20314;-57
2023/05/10 02:51:17;;;;;;;1.10;0.00;;;13.40;99.90;;;;;;4918481;29;20227;-58
2023/05/10 02:53:46;;;;;;;1.03;0.10;;;13.40;99.90;;;;;;4914177;29;20203;-57
2023/05/10 02:56:21;;;;;;;0.10;0.00;;;13.40;99.90;;;;;;4908480;29;20208;-58
2023/05/10 02:58:48;;;;;;;1.10;0.17;;;13.40;99.90;;;;;;4912618;29;20265;-57
2023/05/10 03:01:15;;;;;;;0.87;0.10;;;13.40;99.90;;;;;;4918246;29;20194;-57
2023/05/10 03:03:42;;;;;;;1.50;0.23;;;13.40;99.90;;;;;;4913936;29;20206;-57
2023/05/10 03:06:09;;;;;;;1.13;0.10;;;13.40;99.90;;;;;;4909241;29;20265;-58
2023/05/10 03:08:36;;;;;;;0.10;0.10;;;13.30;99.90;;;;;;4904916;29;20242;-57
2023/05/10 03:11:23;;;;;;;0.13;0.10;;;13.30;99.90;;;;;;4910949;29;20211;-58
2023/05/10 03:14:05;;;;;;;0.30;0.10;;;13.30;99.90;;;;;;4916967;29;20257;-58
2023/05/10 03:16:42;;;;;;;0.63;0.20;;;13.30;99.90;;;;;;4917654;29;20258;-57
2023/05/10 03:19:17;;;;;;;0.30;0.07;;;13.30;99.90;;;;;;4911616;29;20270;-57
2023/05/10 03:21:50;;;;;;;0.77;0.10;;;13.30;99.90;;;;;;4914779;29;20198;-57
2023/05/10 03:24:19;;;;;;;0.10;0.10;;;13.40;99.90;;;;;;4915693;29;20574;-57
2023/05/10 03:26:48;;;;;;;0.10;0.10;;;13.40;99.90;;;;;;4917745;29;20258;-57
2023/05/10 03:29:16;;;;;;;0.10;0.10;;;13.40;99.90;;;;;;4917955;29;20231;-57
2023/05/10 03:31:43;;;;;;;0.17;0.10;;;13.30;99.90;;;;;;4910365;29;20783;-57
2023/05/10 03:34:11;;;;;;;0.30;0.10;;;13.30;99.90;;;;;;4915835;29;20262;-56
2023/05/10 03:36:38;;;;;;;0.20;0.10;;;13.30;99.90;;;;;;4908504;29;20210;-56
2023/05/10 03:39:05;;;;;;;0.10;0.10;;;13.30;99.90;;;;;;4916500;29;20226;-57
2023/05/10 03:41:31;;;;;;;1.23;0.30;;;13.30;99.90;;;;;;4916126;29;20297;-56
2023/05/10 03:44:00;;;;;;;0.77;0.20;;;13.30;99.90;;;;;;4914051;29;20221;-57
2023/05/10 03:46:27;;;;;;;1.80;0.20;;;13.30;99.90;;;;;;4916265;29;20198;-57
2023/05/10 03:48:54;;;;;;;0.27;0.20;;;13.30;99.90;;;;;;4917337;29;20229;-57
2023/05/10 03:51:22;;;;;;;0.93;0.30;;;13.40;99.90;;;;;;4917302;29;20261;-56
2023/05/10 03:53:48;;;;;;;0.20;0.20;;;13.40;99.90;;;;;;4911156;29;20206;-57
2023/05/10 03:56:15;;;;;;;0.13;0.13;;;13.50;99.90;;;;;;4915998;29;20206;-57
2023/05/10 03:58:42;;;;;;;1.10;0.27;;;13.50;99.90;;;;;;4914776;29;20227;-57
2023/05/10 04:01:11;;;;;;;0.10;0.10;;;13.50;99.90;;;;;;4898593;29;20251;-56
2023/05/10 04:03:38;;;;;;;0.20;0.20;;;13.40;99.90;;;;;;4911570;29;20216;-57
2023/05/10 04:06:05;;;;;;;0.10;0.10;;;13.40;99.90;;;;;;4917087;29;20262;-58
2023/05/10 04:08:32;;;;;;;0.20;0.20;;;13.50;99.90;;;;;;4916462;29;20727;-58
2023/05/10 04:11:07;;;;;;;1.80;0.20;;;13.50;99.90;;;;;;4913213;29;20558;-57
2023/05/10 04:13:34;;;;;;;0.40;0.20;;;13.50;99.90;;;;;;4906415;29;20264;-58
2023/05/10 04:16:01;;;;;;;0.33;0.20;;;13.50;99.90;;;;;;4909668;29;20222;-57
2023/05/10 04:18:30;;;;;;;1.23;0.20;;;13.50;99.90;;;;;;4916637;29;20238;-58
2023/05/10 04:20:57;;;;;;;0.20;0.20;;;13.50;99.90;;;;;;4914159;29;20214;-57
2023/05/10 04:23:24;;;;;;;0.40;0.40;;;13.50;99.90;;;;;;4915868;29;20210;-57
2023/05/10 04:25:51;;;;;;;1.57;0.20;;;13.60;99.90;;;;;;4917025;29;20672;-57
2023/05/10 04:28:18;;;;;;;0.37;0.20;;;13.60;99.90;;;;;;4916696;29;20226;-57
2023/05/10 04:30:45;;;;;;;0.20;0.20;;;13.70;99.90;;;;;;4914103;29;20257;-57
2023/05/10 04:33:12;;;;;;;0.30;0.30;;;13.70;99.90;;;;;;4909358;29;20223;-57
2023/05/10 04:35:40;;;;;;;0.20;0.20;;;13.70;99.90;;;;;;4916582;29;20203;-57
2023/05/10 04:38:07;;;;;;;2.30;0.40;;;13.70;99.90;;;;;;4916402;29;20222;-58
2023/05/10 04:40:35;;;;;;;0.57;0.30;;;13.70;99.90;;;;;;4916552;29;20269;-57
2023/05/10 04:43:02;;;;;;;0.40;0.40;;;13.80;99.90;;;;;;4908392;29;20915;-58
2023/05/10 04:45:29;;;;;;;2.43;1.57;;;13.70;99.90;;;;;;4915102;29;20203;-57
2023/05/10 04:47:56;;;;;;;1.77;1.30;;;13.60;99.90;;;;;;4909703;29;20688;-57
2023/05/10 04:50:23;;;;;;;1.60;1.50;;;13.60;99.90;;;;;;4908616;29;20678;-57
2023/05/10 04:52:51;;;;;;;2.00;1.87;;;13.60;99.90;;;;;;4896352;29;20227;-57
2023/05/10 04:55:18;;;;;;;7.87;7.13;;;13.70;99.90;;;;;;4914839;29;20207;-57
2023/05/10 04:57:45;;;;;;;4.07;3.77;;;13.80;99.90;;;;;;4915523;29;20230;-57
2023/05/10 05:00:13;;;;;;;1.53;1.43;;;13.80;99.90;;;;;;4912090;29;20202;-56
2023/05/10 05:02:44;;;;;;;2.30;0.93;;;13.80;99.90;;;;;;4915892;29;20750;-57
2023/05/10 05:05:11;;;;;;;1.50;1.33;;;13.80;99.90;;;;;;4913519;29;20207;-57
2023/05/10 05:07:38;;;;;;;1.00;1.00;;;13.90;99.90;;;;;;4906342;29;20302;-57
2023/05/10 05:10:08;;;;;;;0.70;0.70;;;13.90;99.90;;;;;;4906020;29;20202;-57
2023/05/10 05:12:35;;;;;;;1.00;0.90;;;13.90;99.90;;;;;;4911085;29;20282;-56
2023/05/10 05:15:03;;;;;;;2.30;1.07;;;14.00;99.90;;;;;;4909695;29;20752;-55
2023/05/10 05:17:34;;;;;;;2.90;1.60;;;14.00;99.90;;;;;;4915856;29;20322;-55
2023/05/10 05:20:01;;;;;;;0.80;0.80;;;14.00;99.90;;;;;;4907970;29;20203;-55
2023/05/10 05:22:28;;;;;;;1.10;1.10;;;14.00;99.90;;;;;;4913855;29;20210;-55
2023/05/10 05:24:56;;;;;;;0.70;0.70;;;14.10;99.90;;;;;;4907744;29;20270;-56
2023/05/10 05:27:26;;;;;;;0.80;0.80;;;14.10;99.90;;;;;;4913870;29;20280;-57
2023/05/10 05:29:53;;;;;;;1.30;1.00;;;14.20;99.90;;;;;;4915761;29;20217;-57
2023/05/10 05:32:20;;;;;;;1.53;1.43;;;14.30;99.90;;;;;;4897265;29;20280;-56
2023/05/10 05:34:47;;;;;;;0.70;0.60;;;14.40;99.90;;;;;;4896828;29;20273;-56
2023/05/10 05:37:15;;;;;;;1.47;0.90;;;14.40;99.90;;;;;;4896678;29;20227;-57
2023/05/10 05:39:42;;;;;;;1.27;0.40;;;14.50;99.90;;;;;;4900402;29;20282;-57
2023/05/10 05:42:10;;;;;;;1.17;0.97;;;14.50;99.90;;;;;;4914303;29;20205;-57
2023/05/10 05:44:38;;;;;;;0.80;0.80;;;14.50;99.90;;;;;;4929749;29;20257;-57
2023/05/10 05:47:06;;;;;;;0.60;0.37;;;14.40;99.90;;;;;;4922833;29;20557;-57
2023/05/10 05:49:33;;;;;;;0.70;0.70;;;14.30;99.90;;;;;;4914882;29;20666;-56
2023/05/10 05:52:01;;;;;;;0.50;0.50;;;14.30;99.90;;;;;;4915412;29;20211;-58
2023/05/10 05:54:28;;;;;;;1.40;1.03;;;14.30;99.90;;;;;;4913552;29;20217;-57
2023/05/10 05:56:56;;;;;;;0.90;0.90;;;14.30;99.90;;;;;;4911688;29;20627;-57
2023/05/10 05:59:23;;;;;;;0.60;0.60;;;14.30;99.90;;;;;;4899349;29;20592;-56
2023/05/10 06:01:52;;;;;;;0.73;0.73;;;14.30;99.90;;;;;;4909739;29;20251;-56
2023/05/10 06:04:19;;;;;;;1.90;0.80;;;14.30;99.90;;;;;;4908140;29;20203;-56
2023/05/10 06:06:46;;;;;;;0.67;0.67;;;14.40;99.90;;;;;;4903473;29;20627;-56
2023/05/10 06:09:14;;;;;;;0.40;0.40;;;14.40;99.90;;;;;;4912554;29;20270;-56
2023/05/10 06:11:41;;;;;;;0.60;0.60;;;14.50;99.90;;;;;;4919005;29;20294;-56
2023/05/10 06:14:09;;;;;;;1.23;0.40;;;14.50;99.90;;;;;;4915392;29;20269;-57
2023/05/10 06:16:36;;;;;;;0.50;0.23;;;14.40;99.90;;;;;;4910957;29;20285;-56
2023/05/10 06:19:04;;;;;;;0.30;0.30;;;14.40;99.90;;;;;;4912990;29;20779;-57
2023/05/10 06:21:31;;;;;;;0.87;0.40;;;14.50;99.90;;;;;;4908493;29;20206;-56
2023/05/10 06:23:58;;;;;;;0.50;0.50;;;14.40;99.90;;;;;;4911921;29;20212;-57
2023/05/10 06:26:25;;;;;;;1.23;0.30;;;14.20;99.90;;;;;;4917495;29;20262;-57
2023/05/10 06:28:52;;;;;;;2.03;0.30;;;14.30;99.90;;;;;;4918185;29;20600;-57
2023/05/10 06:31:19;;;;;;;2.33;0.70;;;14.20;99.90;;;;;;4918817;29;20206;-57
2023/05/10 06:33:46;;;;;;;0.47;0.47;;;14.20;99.90;;;;;;4906892;29;20771;-56
2023/05/10 06:36:15;;;;;;;12.40;0.93;;;14.20;99.90;;;;;;4918565;29;20287;-57
2023/05/10 06:38:42;;;;;;;2.90;0.27;;;14.10;99.90;;;;;;4917876;29;20277;-57
2023/05/10 06:41:09;;;;;;;1.27;0.30;;;14.10;99.90;;;;;;4917178;29;20278;-58
2023/05/10 06:43:39;;;;;;;0.20;0.20;;;14.20;99.90;;;;;;4910949;29;20203;-57
2023/05/10 06:46:07;;;;;;;0.60;0.30;;;14.20;99.90;;;;;;4916083;29;20214;-58
2023/05/10 06:48:34;;;;;;;0.30;0.30;;;14.20;99.90;;;;;;4915481;29;20325;-55
2023/05/10 06:51:01;;;;;;;1.73;0.30;;;14.20;99.90;;;;;;4917047;29;20203;-55
2023/05/10 06:53:30;;;;;;;1.03;0.30;;;14.30;99.90;;;;;;4917697;29;20226;-55
2023/05/10 06:55:57;;;;;;;0.73;0.30;;;14.20;99.90;;;;;;4918614;29;20207;-55
2023/05/10 06:58:24;;;;;;;0.60;0.30;;;14.20;99.90;;;;;;4908683;29;20235;-55
2023/05/10 07:00:51;;;;;;;0.30;0.30;;;14.20;99.90;;;;;;4914658;29;20242;-56
2023/05/10 07:03:18;;;;;;;0.40;0.40;;;14.20;99.90;;;;;;4917857;29;20281;-56
2023/05/10 07:05:45;;;;;;;0.50;0.30;;;14.20;99.90;;;;;;4915486;29;20217;-56
2023/05/10 07:08:13;;;;;;;1.60;0.33;;;14.20;99.90;;;;;;4918750;29;20716;-55
2023/05/10 07:10:41;;;;;;;0.77;0.40;;;14.00;99.90;;;;;;4918010;29;20218;-55
2023/05/10 07:13:09;;;;;;;1.17;0.30;;;14.10;99.90;;;;;;4916348;29;20246;-55
2023/05/10 07:15:36;;;;;;;0.83;0.37;;;14.10;99.90;;;;;;4906824;29;20719;-54
2023/05/10 07:18:06;;;;;;;0.30;0.30;;;14.10;99.90;;;;;;4907224;29;20286;-55
2023/05/10 07:20:33;;;;;;;1.80;0.60;;;14.20;99.90;;;;;;4917383;29;20704;-56
2023/05/10 07:23:00;;;;;;;0.30;0.30;;;14.20;99.90;;;;;;4917125;29;20765;-55
2023/05/10 07:25:27;;;;;;;0.30;0.30;;;14.10;99.90;;;;;;4918264;29;20352;-55
2023/05/10 07:27:55;;;;;;;0.63;0.20;;;14.20;99.90;;;;;;4918255;29;20230;-55
2023/05/10 07:30:22;;;;;;;0.50;0.20;;;14.10;99.90;;;;;;4917681;29;20258;-55
2023/05/10 07:32:49;;;;;;;1.17;0.30;;;14.00;99.90;;;;;;4916825;29;20237;-55
2023/05/10 07:35:16;;;;;;;0.20;0.20;;;14.00;99.90;;;;;;4917862;29;20206;-55
2023/05/10 07:37:43;;;;;;;0.20;0.20;;;14.00;99.90;;;;;;4917734;29;20270;-55
2023/05/10 07:40:10;;;;;;;0.53;0.53;;;14.00;99.90;;;;;;4911903;29;20282;-57
2023/05/10 07:42:38;;;;;;;0.60;0.60;;;14.10;99.90;;;;;;4911439;29;20278;-57
2023/05/10 07:45:08;;;;;;;0.47;0.20;;;14.10;99.90;;;;;;4911166;29;20466;-56
2023/05/10 07:47:39;;;;;;;0.20;0.20;;;13.90;99.90;;;;;;4917110;29;20306;-55
2023/05/10 07:50:08;;;;;;;2.10;0.20;;;13.90;99.90;;;;;;4903190;29;20298;-55
2023/05/10 07:52:36;;;;;;;0.20;0.20;;;13.90;99.90;;;;;;4917471;29;20256;-55
2023/05/10 07:55:03;;;;;;;0.23;0.20;;;13.90;99.90;;;;;;4917042;29;20209;-56
2023/05/10 07:57:30;;;;;;;2.77;0.27;;;13.90;99.90;;;;;;4908047;29;20223;-55
2023/05/10 07:59:57;;;;;;;0.83;0.30;;;13.70;99.90;;;;;;4909641;29;20296;-56
2023/05/10 08:02:26;;;;;;;0.93;0.30;;;13.60;99.90;;;;;;4917023;29;20680;-56
2023/05/10 08:04:53;;;;;;;1.07;0.47;;;13.60;99.90;;;;;;4917097;29;20846;-56
2023/05/10 08:07:20;;;;;;;0.57;0.50;;;13.50;99.90;;;;;;4915915;29;20270;-55
2023/05/10 08:09:47;;;;;;;2.33;0.50;;;13.40;99.90;;;;;;4933454;23;20573;-60
2023/05/10 08:12:14;;;;;;;3.07;0.40;;;13.50;99.90;;;;;;4914323;29;20266;-60
2023/05/10 08:14:41;;;;;;;0.73;0.60;;;13.40;99.90;;;;;;4915280;29;20658;-60
2023/05/10 08:17:08;;;;;;;2.10;1.03;;;13.50;99.90;;;;;;4913888;29;20374;-60
2023/05/10 08:19:36;;;;;;;0.60;0.50;;;13.50;99.90;;;;;;4916109;29;20226;-60
2023/05/10 08:22:03;;;;;;;1.70;0.50;;;13.50;99.90;;;;;;4916077;29;20221;-60
2023/05/10 08:24:30;;;;;;;2.60;1.07;;;13.50;99.90;;;;;;4910437;29;20254;-60
2023/05/10 08:26:57;;;;;;;1.50;1.03;;;13.50;99.90;;;;;;4916358;29;20220;-60
2023/05/10 08:29:24;;;;;;;0.70;0.70;;;13.50;99.90;;;;;;4898850;29;20478;-64
2023/05/10 08:31:51;;;;;;;1.53;1.07;;;13.50;99.90;;;;;;4896964;29;20471;-63
2023/05/10 08:34:18;;;;;;;0.40;0.40;;;13.70;99.90;;;;;;4898859;29;20250;-62
2023/05/10 08:36:46;;;;;;;0.87;0.57;;;13.60;99.90;;;;;;4900035;29;20203;-63
2023/05/10 08:39:13;;;;;;;0.93;0.33;;;13.70;99.90;;;;;;4896324;29;20253;-63
2023/05/10 08:41:44;;;;;;;1.23;0.80;;;13.70;99.90;;;;;;4896328;29;20259;-63
2023/05/10 08:44:11;;;;;;;0.77;0.77;;;13.80;99.90;;;;;;4898403;29;20278;-62
2023/05/10 08:46:43;;;;;;;2.50;0.47;;;13.80;99.90;;;;;;4901673;29;20281;-61
2023/05/10 08:49:14;;;;;;;0.83;0.47;;;13.70;99.90;;;;;;4905706;29;20709;-63
2023/05/10 08:51:49;;;;;;;4.17;1.23;;;13.80;99.90;;;;;;4903945;29;20266;-64
2023/05/10 08:54:16;;;;;;;0.50;0.30;;;13.80;99.90;;;;;;4901024;29;20234;-63
2023/05/10 08:56:44;;;;;;;0.37;0.20;;;13.80;99.90;;;;;;4898755;29;20738;-64
2023/05/10 08:59:12;;;;;;;0.60;0.20;;;13.80;99.90;;;;;;4899015;29;20231;-61
2023/05/10 09:01:39;;;;;;;0.10;0.10;;;13.80;99.90;;;;;;4908177;29;20297;-62
2023/05/10 09:04:06;;;;;;;1.73;0.20;;;13.90;99.90;;;;;;4913811;29;20286;-61
2023/05/10 09:06:34;;;;;;;0.30;0.30;;;13.80;99.90;;;;;;4910047;29;20240;-63
2023/05/10 09:09:03;;;;;;;0.20;0.20;;;13.70;99.90;;;;;;4913655;29;20313;-63
2023/05/10 09:11:31;;;;;;;0.20;0.20;;;13.80;99.90;;;;;;4903750;29;20202;-65
2023/05/10 09:13:58;;;;;;;0.10;0.10;;;13.80;99.90;;;;;;4908365;29;20641;-64
2023/05/10 09:16:25;;;;;;;1.10;0.13;;;13.80;99.90;;;;;;4898909;29;20352;-65
2023/05/10 09:18:52;;;;;;;0.10;0.10;;;13.70;99.90;;;;;;4915211;29;20755;-64
2023/05/10 09:21:20;;;;;;;0.10;0.10;;;13.70;99.90;;;;;;4911325;29;20202;-64
2023/05/10 09:23:49;;;;;;;0.73;0.10;;;13.70;99.90;;;;;;4914779;29;20207;-64
2023/05/10 09:26:18;;;;;;;0.30;0.30;;;13.70;99.90;;;;;;4916527;29;20310;-64
2023/05/10 09:28:52;;;;;;;0.87;0.43;;;13.80;99.90;;;;;;4922334;29;20210;-64
2023/05/10 09:31:20;;;;;;;0.20;0.20;;;13.80;99.90;;;;;;4916231;29;20202;-64
2023/05/10 09:33:47;;;;;;;0.50;0.40;;;13.90;99.90;;;;;;4908734;29;20312;-64
2023/05/10 09:36:15;;;;;;;2.93;0.33;;;14.00;99.90;;;;;;4907385;29;20298;-64
2023/05/10 09:38:49;;;;;;;3.60;0.30;;;14.20;99.90;;;;;;4903613;29;20203;-64
2023/05/10 09:41:22;;;;;;;2.53;0.30;;;14.20;99.90;;;;;;4902873;29;20226;-64
2023/05/10 09:43:49;;;;;;;0.30;0.20;;;14.00;99.90;;;;;;4908430;29;20209;-65
2023/05/10 09:46:17;;;;;;;0.20;0.20;;;14.00;99.90;;;;;;4900788;29;21048;-65
2023/05/10 09:48:47;;;;;;;0.30;0.30;;;14.00;99.90;;;;;;4901460;29;20230;-64
2023/05/10 09:51:20;;;;;;;0.73;0.20;;;14.10;99.90;;;;;;4915396;29;20664;-64
2023/05/10 09:53:47;;;;;;;6.60;0.30;;;14.30;99.90;;;;;;4909060;29;20274;-66
2023/05/10 09:56:14;;;;;;;0.27;0.13;;;14.30;99.90;;;;;;4897465;29;20622;-65
2023/05/10 09:58:42;;;;;;;1.13;0.20;;;14.30;99.90;;;;;;4896747;29;20298;-65
2023/05/10 10:01:12;;;;;;;0.60;0.20;;;14.40;99.90;;;;;;4904644;29;20297;-61
2023/05/10 10:03:43;;;;;;;1.40;0.20;;;14.50;99.90;;;;;;4904492;29;20206;-65
2023/05/10 10:06:10;;;;;;;0.20;0.20;;;14.60;99.90;;;;;;4904146;29;20254;-63
2023/05/10 10:08:37;;;;;;;0.30;0.10;;;14.60;99.90;;;;;;4896886;29;20693;-63
2023/05/10 10:11:05;;;;;;;0.20;0.20;;;14.50;99.90;;;;;;4903143;29;20740;-62
2023/05/10 10:13:32;;;;;;;0.30;0.30;;;14.50;99.90;;;;;;4900530;29;20245;-62
2023/05/10 10:16:01;;;;;;;0.20;0.20;;;14.40;99.90;;;;;;4912591;29;20205;-63
2023/05/10 10:18:29;;;;;;;0.10;0.10;;;14.40;99.90;;;;;;4893615;29;20226;-64
2023/05/10 10:20:56;;;;;;;0.17;0.17;;;14.40;99.90;;;;;;4894107;29;20372;-63
2023/05/10 10:23:23;;;;;;;0.13;0.10;;;14.20;99.90;;;;;;4895041;29;21127;-62
2023/05/10 10:25:51;;;;;;;0.20;0.20;;;14.20;99.90;;;;;;4898251;29;20210;-64
2023/05/10 10:28:27;;;;;;;0.73;0.13;;;14.20;99.90;;;;;;4896658;29;20206;-61
2023/05/10 10:30:56;;;;;;;3.40;0.10;;;14.00;99.90;;;;;;4899191;29;20649;-61
2023/05/10 10:33:37;;;;;;;0.70;0.30;;;13.90;99.90;;;;;;4898977;29;20265;-61
2023/05/10 10:36:04;;;;;;;0.10;0.10;;;14.00;99.90;;;;;;4896435;29;20796;-62
2023/05/10 10:38:59;;;;;;;1.17;0.10;;;14.00;99.90;;;;;;4893523;29;20566;-61
2023/05/10 10:41:33;;;;;;;0.10;0.10;;;13.90;99.90;;;;;;4906668;29;20227;-65
2023/05/10 10:44:26;;;;;;;0.17;0.10;;;13.90;99.90;;;;;;4900259;29;20202;-63
2023/05/10 10:47:08;;;;;;;1.97;0.20;;;13.80;99.90;;;;;;4897036;29;20300;-64
2023/05/10 10:49:42;;;;;;;0.30;0.10;;;13.80;99.90;;;;;;4907757;29;20231;-62
2023/05/10 10:52:28;;;;;;;0.50;0.20;;;13.70;99.90;;;;;;4911594;29;20207;-64
2023/05/10 10:55:01;;;;;;;0.60;0.20;;;13.60;99.90;;;;;;4909887;29;20234;-62
2023/05/10 10:57:30;;;;;;;2.10;0.50;;;13.60;99.90;;;;;;4915872;29;20748;-64
2023/05/10 11:00:23;;;;;;;0.30;0.30;;;13.70;99.90;;;;;;4903226;29;20309;-65
2023/05/10 11:02:52;;;;;;;1.27;0.20;;;13.90;99.90;;;;;;4906919;29;20896;-62
2023/05/10 11:05:48;;;;;;;0.30;0.13;;;14.10;99.90;;;;;;4902073;29;20201;-62
2023/05/10 11:08:21;;;;;;;0.20;0.20;;;14.10;99.90;;;;;;4915520;29;20352;-64
2023/05/10 11:11:04;;;;;;;2.83;0.20;;;14.20;99.90;;;;;;4917205;29;20238;-64
2023/05/10 11:13:32;;;;;;;0.20;0.20;;;14.20;99.90;;;;;;4916767;29;20218;-63
2023/05/10 11:16:10;;;;;;;0.20;0.20;;;14.40;99.90;;;;;;4917468;29;20207;-65
2023/05/10 11:18:38;;;;;;;0.40;0.20;;;14.40;99.90;;;;;;4917547;29;20383;-65
2023/05/10 11:21:09;;;;;;;0.10;0.10;;;14.50;99.90;;;;;;4909035;29;20768;-65
2023/05/10 11:23:50;;;;;;;0.30;0.30;;;14.70;99.90;;;;;;4917346;29;20285;-65
2023/05/10 11:26:17;;;;;;;0.30;0.30;;;14.80;99.90;;;;;;4902472;29;20692;-65
2023/05/10 11:28:44;;;;;;;0.40;0.10;;;14.90;99.90;;;;;;4898527;29;20203;-66
2023/05/10 11:31:12;;;;;;;0.17;0.17;;;14.90;99.90;;;;;;4907282;29;20739;-64
2023/05/10 11:33:44;;;;;;;0.37;0.30;;;14.90;99.90;;;;;;4916331;29;20206;-65
2023/05/10 11:36:15;;;;;;;1.60;0.30;;;14.90;99.90;;;;;;4909481;29;20221;-65
2023/05/10 11:38:42;;;;;;;2.00;0.30;;;14.90;99.90;;;;;;4900379;29;20329;-66
2023/05/10 11:41:11;;;;;;;0.93;0.40;;;14.90;99.90;;;;;;4899797;29;20222;-65
2023/05/10 11:43:39;;;;;;;0.70;0.40;;;15.00;99.90;;;;;;4900166;29;20203;-64
2023/05/10 11:46:07;;;;;;;0.40;0.30;;;15.20;99.90;;;;;;4901758;29;20202;-64
2023/05/10 11:48:34;;;;;;;2.67;0.50;;;15.20;99.90;;;;;;4900399;29;20203;-65
2023/05/10 11:51:02;;;;;;;1.80;0.27;;;15.40;99.90;;;;;;4899198;29;20227;-64
2023/05/10 11:53:32;;;;;;;0.20;0.20;;;15.30;99.90;;;;;;4900733;29;20204;-66
2023/05/10 11:56:05;;;;;;;0.77;0.30;;;15.20;99.90;;;;;;4910795;29;20230;-64
2023/05/10 11:58:32;;;;;;;0.70;0.43;;;15.30;99.90;;;;;;4897895;29;21067;-63
2023/05/10 12:01:00;;;;;;;0.30;0.30;;;15.20;99.90;;;;;;4909478;29;20233;-62
2023/05/10 12:03:27;;;;;;;0.40;0.20;;;15.30;99.90;;;;;;4902092;29;20210;-64
2023/05/10 12:05:55;;;;;;;0.20;0.20;;;15.40;99.90;;;;;;4905419;29;20847;-64
2023/05/10 12:08:23;;;;;;;0.27;0.20;;;15.40;99.90;;;;;;4900751;29;20601;-65
2023/05/10 12:10:52;;;;;;;0.13;0.13;;;15.30;99.90;;;;;;4902972;29;20235;-67
2023/05/10 12:13:20;;;;;;;0.17;0.17;;;15.30;99.90;;;;;;4900826;29;20295;-70
2023/05/10 12:15:48;;;;;;;0.53;0.20;;;15.30;99.90;;;;;;4906438;29;20713;-70
2023/05/10 12:18:16;;;;;;;0.93;0.13;;;15.10;99.90;;;;;;4904611;29;20203;-66
2023/05/10 12:20:43;;;;;;;0.90;0.40;;;15.10;99.90;;;;;;4915494;29;20237;-64
2023/05/10 12:23:10;;;;;;;0.30;0.30;;;14.90;99.90;;;;;;4910481;29;20210;-62
2023/05/10 12:25:38;;;;;;;0.30;0.10;;;15.00;99.90;;;;;;4897594;29;20588;-62
2023/05/10 12:28:08;;;;;;;0.80;0.20;;;15.00;99.90;;;;;;4902465;29;20211;-63
2023/05/10 12:30:36;;;;;;;0.47;0.30;;;15.00;99.90;;;;;;4896436;29;20222;-63
2023/05/10 12:33:08;;;;;;;0.27;0.27;;;15.00;99.90;;;;;;4910421;29;20736;-66
2023/05/10 12:35:45;;;;;;;0.40;0.10;;;15.00;99.90;;;;;;4897723;29;20231;-68
2023/05/10 12:38:29;;;;;;;0.20;0.20;;;15.00;99.90;;;;;;4896513;29;20213;-65
2023/05/10 12:40:56;;;;;;;0.20;0.20;;;14.90;99.90;;;;;;4899483;29;20704;-66
2023/05/10 12:43:24;;;;;;;1.40;0.30;;;14.70;99.90;;;;;;4898736;29;20246;-64
2023/05/10 12:45:51;;;;;;;0.20;0.20;;;14.60;99.90;;;;;;4904399;29;20205;-65
2023/05/10 12:48:18;;;;;;;0.23;0.20;;;14.50;99.90;;;;;;4898385;29;20619;-64
2023/05/10 12:50:45;;;;;;;0.90;0.30;;;14.50;99.90;;;;;;4899459;29;20227;-64
2023/05/10 12:53:15;;;;;;;0.37;0.20;;;14.30;99.90;;;;;;4898716;29;20253;-63
2023/05/10 12:55:42;;;;;;;0.30;0.30;;;14.30;99.90;;;;;;4899187;29;20222;-65
2023/05/10 12:58:09;;;;;;;0.43;0.20;;;14.20;99.90;;;;;;4896358;29;20735;-64
2023/05/10 13:00:37;;;;;;;0.20;0.20;;;14.30;99.90;;;;;;4897528;29;20230;-66
2023/05/10 13:03:06;;;;;;;2.30;0.27;;;14.30;99.90;;;;;;4895289;29;20202;-66
2023/05/10 13:05:33;;;;;;;0.20;0.20;;;14.30;99.90;;;;;;4896839;29;20575;-65
2023/05/10 13:08:00;;;;;;;0.40;0.30;;;14.40;99.90;;;;;;4911453;29;20209;-67
2023/05/10 13:10:27;;;;;;;0.27;0.20;;;14.40;99.90;;;;;;4915482;29;20234;-67
2023/05/10 13:12:54;;;;;;;1.30;0.30;;;14.50;99.90;;;;;;4900971;29;20630;-67
2023/05/10 13:15:21;;;;;;;0.20;0.20;;;14.40;99.90;;;;;;4896691;29;20306;-68
2023/05/10 13:17:50;;;;;;;0.40;0.40;;;14.40;99.90;;;;;;4896016;29;20197;-65
2023/05/10 13:20:17;;;;;;;0.20;0.20;;;14.40;99.90;;;;;;4897227;29;20305;-67
2023/05/10 13:22:45;;;;;;;0.20;0.20;;;14.30;99.90;;;;;;4896362;29;20282;-65